Time;durP1;ratioP1;P1;durP2;ratioP2;P2;SDS_P1;SDS_P2;PMS_P1;PMS_P2;Temp;Humidity;BMP_temperature;BMP_pressure;BME280_temperature;BME280_humidity;BME280_pressure;Samples;Min_cycle;Max_cycle;Signal;HPM_P1;HPM_P2
2023/10/30 00:01:51;;;;;;;3.30;1.77;;;;;;;11.19;100.00;99315.63;4965125;28;20229;-69
2023/10/30 00:04:18;;;;;;;3.57;1.97;;;;;;;11.14;100.00;99319.22;4960681;28;20745;-69
2023/10/30 00:06:44;;;;;;;3.57;1.80;;;;;;;11.16;100.00;99328.91;4971892;28;20204;-68
2023/10/30 00:09:11;;;;;;;2.63;1.60;;;;;;;11.16;100.00;99331.56;4967053;28;20225;-70
2023/10/30 00:11:37;;;;;;;2.53;1.60;;;;;;;11.17;100.00;99337.75;4968566;28;20659;-69
2023/10/30 00:14:05;;;;;;;4.40;1.80;;;;;;;11.16;100.00;99331.56;4966854;28;20686;-69
2023/10/30 00:16:31;;;;;;;3.87;2.20;;;;;;;11.16;100.00;99347.47;4950103;28;20595;-68
2023/10/30 00:19:02;;;;;;;4.13;1.70;;;;;;;11.25;100.00;99351.84;4968681;28;20205;-69
2023/10/30 00:21:28;;;;;;;2.10;1.73;;;;;;;11.27;100.00;99342.13;4961936;28;20210;-69
2023/10/30 00:23:55;;;;;;;3.37;1.60;;;;;;;11.27;100.00;99340.34;4968693;28;20201;-70
2023/10/30 00:26:21;;;;;;;5.83;2.33;;;;;;;11.30;100.00;99337.69;4968062;28;20573;-69
2023/10/30 00:28:48;;;;;;;2.53;1.50;;;;;;;11.29;100.00;99341.22;4966334;28;20406;-69
2023/10/30 00:31:14;;;;;;;3.30;1.47;;;;;;;11.34;100.00;99327.94;4966070;28;20225;-69
2023/10/30 00:33:41;;;;;;;2.77;1.50;;;;;;;11.34;100.00;99324.41;4965820;28;20258;-68
2023/10/30 00:36:10;;;;;;;3.17;1.67;;;;;;;11.41;100.00;99337.59;4967649;28;20201;-70
2023/10/30 00:38:36;;;;;;;3.03;1.40;;;;;;;11.41;100.00;99327.00;4965526;28;20201;-69
2023/10/30 00:41:03;;;;;;;4.53;1.80;;;;;;;11.44;100.00;99321.66;4969579;28;20665;-69
2023/10/30 00:43:29;;;;;;;4.77;2.20;;;;;;;11.47;100.00;99334.91;4966910;28;20238;-69
2023/10/30 00:45:55;;;;;;;3.50;1.90;;;;;;;11.47;100.00;99339.31;4966773;28;20216;-70
2023/10/30 00:48:25;;;;;;;4.33;2.70;;;;;;;11.52;100.00;99319.84;4967323;28;20587;-70
2023/10/30 00:50:51;;;;;;;5.27;2.70;;;;;;;11.56;100.00;99294.16;4968045;28;20600;-71
2023/10/30 00:53:18;;;;;;;4.20;2.40;;;;;;;11.54;100.00;99307.44;4964078;28;20836;-70
2023/10/30 00:55:49;;;;;;;3.50;2.63;;;;;;;11.50;100.00;99339.28;4960060;28;20209;-69
2023/10/30 00:58:15;;;;;;;4.00;2.40;;;;;;;11.47;100.00;99366.72;4967567;28;20205;-69
2023/10/30 01:00:43;;;;;;;5.07;2.40;;;;;;;11.50;100.00;99364.03;4957643;28;20588;-69
2023/10/30 01:03:10;;;;;;;2.87;2.17;;;;;;;11.49;100.00;99364.03;4963700;28;20297;-69
2023/10/30 01:05:37;;;;;;;3.07;2.30;;;;;;;11.52;100.00;99367.56;4967824;28;20260;-68
2023/10/30 01:08:08;;;;;;;3.80;2.50;;;;;;;11.50;100.00;99373.75;4967949;28;20210;-70
2023/10/30 01:10:36;;;;;;;3.13;2.40;;;;;;;11.53;100.00;99368.44;4961669;28;20221;-70
2023/10/30 01:13:02;;;;;;;5.60;2.60;;;;;;;11.59;100.00;99379.00;4965055;28;20319;-70
2023/10/30 01:15:29;;;;;;;4.57;2.40;;;;;;;11.59;100.00;99371.03;4964369;28;20689;-71
2023/10/30 01:17:56;;;;;;;4.20;2.53;;;;;;;11.60;100.00;99371.03;4964356;28;20221;-69
2023/10/30 01:20:22;;;;;;;6.93;2.60;;;;;;;11.59;100.00;99371.91;4963412;28;21340;-70
2023/10/30 01:22:49;;;;;;;4.20;2.40;;;;;;;11.61;100.00;99369.28;4963458;28;20243;-70
2023/10/30 01:25:15;;;;;;;3.67;2.47;;;;;;;11.62;100.00;99373.69;4965690;28;20205;-69
2023/10/30 01:27:41;;;;;;;3.97;2.23;;;;;;;11.65;100.00;99376.31;4967077;28;22260;-69
2023/10/30 01:30:08;;;;;;;3.03;2.13;;;;;;;11.67;100.00;99376.31;4968379;28;20663;-68
2023/10/30 01:32:35;;;;;;;4.33;2.47;;;;;;;11.68;100.00;99363.03;4963947;28;20265;-69
2023/10/30 01:35:01;;;;;;;3.33;2.43;;;;;;;11.69;100.00;99355.97;4951484;28;20762;-68
2023/10/30 01:37:28;;;;;;;3.87;2.23;;;;;;;11.68;100.00;99347.13;4965451;28;20237;-68
2023/10/30 01:39:54;;;;;;;5.00;2.80;;;;;;;11.69;100.00;99351.53;4967656;28;20236;-69
2023/10/30 01:42:20;;;;;;;5.30;2.00;;;;;;;11.69;100.00;99356.84;4965900;28;20993;-70
2023/10/30 01:44:55;;;;;;;3.70;2.00;;;;;;;11.69;100.00;99343.59;4968963;28;20197;-68
2023/10/30 01:47:25;;;;;;;5.23;1.93;;;;;;;11.71;100.00;99339.16;4966066;28;20292;-69
2023/10/30 01:50:00;;;;;;;3.87;1.43;;;;;;;11.73;100.00;99331.19;4966823;28;20612;-69
2023/10/30 01:52:29;;;;;;;3.77;1.63;;;;;;;11.76;100.00;99334.69;4960791;28;20528;-69
2023/10/30 01:54:56;;;;;;;4.00;1.50;;;;;;;11.78;100.00;99340.88;4966015;28;20574;-69
2023/10/30 01:57:25;;;;;;;4.63;1.53;;;;;;;11.78;100.00;99334.69;4965782;28;20593;-69
2023/10/30 01:59:52;;;;;;;2.43;1.20;;;;;;;11.73;100.00;99340.00;4967435;28;20206;-68
2023/10/30 02:02:19;;;;;;;5.30;1.60;;;;;;;11.75;100.00;99356.78;4958322;28;20324;-68
2023/10/30 02:04:46;;;;;;;6.77;1.50;;;;;;;11.81;100.00;99356.78;4966873;28;20201;-68
2023/10/30 02:07:13;;;;;;;4.90;1.20;;;;;;;11.76;100.00;99352.38;4967364;28;20206;-70
2023/10/30 02:09:40;;;;;;;3.00;1.40;;;;;;;11.81;100.00;99343.50;4967142;28;20221;-69
2023/10/30 02:12:07;;;;;;;3.77;1.50;;;;;;;11.85;100.00;99339.94;4959254;28;20788;-68
2023/10/30 02:14:34;;;;;;;2.00;1.30;;;;;;;11.87;100.00;99331.97;4964328;28;20212;-70
2023/10/30 02:17:00;;;;;;;3.63;1.20;;;;;;;11.87;100.00;99331.97;4964216;28;20209;-68
2023/10/30 02:19:27;;;;;;;1.77;1.30;;;;;;;11.87;100.00;99331.97;4964910;28;20206;-68
2023/10/30 02:21:55;;;;;;;2.63;1.20;;;;;;;11.86;100.00;99320.47;4961493;28;20240;-68
2023/10/30 02:24:22;;;;;;;3.47;1.40;;;;;;;11.84;100.00;99324.91;4965638;28;20501;-68
2023/10/30 02:26:49;;;;;;;4.03;1.13;;;;;;;11.83;100.00;99312.53;4967984;28;20244;-69
2023/10/30 02:29:16;;;;;;;2.80;1.10;;;;;;;11.85;100.00;99325.78;4965027;28;20221;-69
2023/10/30 02:31:43;;;;;;;4.37;1.20;;;;;;;11.84;100.00;99327.56;4964782;28;20208;-68
2023/10/30 02:34:11;;;;;;;4.17;1.10;;;;;;;11.80;100.00;99323.19;4968842;28;20286;-73
2023/10/30 02:36:37;;;;;;;1.77;1.20;;;;;;;11.80;100.00;99330.25;4969838;28;20504;-68
2023/10/30 02:39:04;;;;;;;2.33;1.10;;;;;;;11.74;100.00;99331.16;4954802;28;20205;-68
2023/10/30 02:41:31;;;;;;;4.93;1.07;;;;;;;11.75;100.00;99327.63;4963570;28;20202;-68
2023/10/30 02:43:58;;;;;;;2.10;1.10;;;;;;;11.72;100.00;99325.00;4969398;28;20220;-68
2023/10/30 02:46:25;;;;;;;3.47;0.97;;;;;;;11.75;100.00;99308.16;4966121;28;20208;-68
2023/10/30 02:48:52;;;;;;;4.37;1.10;;;;;;;11.69;100.00;99310.88;4962373;28;20202;-69
2023/10/30 02:51:18;;;;;;;2.40;1.13;;;;;;;11.67;100.00;99320.63;4964924;28;20198;-70
2023/10/30 02:53:44;;;;;;;2.67;0.90;;;;;;;11.66;100.00;99321.50;4964776;28;20781;-69
2023/10/30 02:56:11;;;;;;;2.87;1.13;;;;;;;11.63;100.00;99314.47;4965424;28;20201;-68
2023/10/30 02:58:37;;;;;;;1.63;1.20;;;;;;;11.55;100.00;99297.72;4967893;28;20217;-69
2023/10/30 03:01:03;;;;;;;1.80;0.90;;;;;;;11.62;100.00;99315.34;4954783;28;20688;-70
2023/10/30 03:03:30;;;;;;;3.33;1.00;;;;;;;11.64;100.00;99325.94;4960245;28;20518;-68
2023/10/30 03:05:57;;;;;;;3.17;1.13;;;;;;;11.59;100.00;99328.59;4964132;28;20538;-69
2023/10/30 03:08:25;;;;;;;2.10;0.93;;;;;;;11.59;100.00;99332.16;4966772;28;20216;-69
2023/10/30 03:10:51;;;;;;;1.37;0.90;;;;;;;11.60;100.00;99320.66;4965965;28;20229;-68
2023/10/30 03:13:18;;;;;;;2.57;0.90;;;;;;;11.59;100.00;99302.97;4965838;28;20324;-70
2023/10/30 03:15:47;;;;;;;2.90;1.10;;;;;;;11.52;100.00;99314.53;4965758;28;20197;-68
2023/10/30 03:18:13;;;;;;;1.43;0.77;;;;;;;11.50;100.00;99326.91;4966763;28;20209;-69
2023/10/30 03:20:40;;;;;;;1.23;0.80;;;;;;;11.49;100.00;99311.91;4964383;28;20198;-70
2023/10/30 03:23:06;;;;;;;1.10;0.87;;;;;;;11.53;100.00;99310.97;4964345;28;20321;-69
2023/10/30 03:25:33;;;;;;;2.00;0.90;;;;;;;11.51;100.00;99311.88;4965724;28;21454;-69
2023/10/30 03:27:59;;;;;;;3.33;0.90;;;;;;;11.40;100.00;99311.97;4966213;28;20210;-69
2023/10/30 03:30:26;;;;;;;3.80;0.90;;;;;;;11.35;100.00;99329.69;4962452;28;20698;-69
2023/10/30 03:32:52;;;;;;;3.43;0.90;;;;;;;11.37;100.00;99317.31;4964263;28;20221;-68
2023/10/30 03:35:19;;;;;;;2.43;0.80;;;;;;;11.35;100.00;99320.84;4966371;28;20263;-70
2023/10/30 03:37:48;;;;;;;2.47;0.87;;;;;;;11.35;100.00;99335.00;4965604;28;20284;-70
2023/10/30 03:40:14;;;;;;;2.07;1.00;;;;;;;11.37;100.00;99333.22;4965586;28;20206;-70
2023/10/30 03:42:40;;;;;;;2.33;0.70;;;;;;;11.37;100.00;99333.22;4963291;28;20706;-69
2023/10/30 03:45:07;;;;;;;4.63;0.80;;;;;;;11.35;100.00;99337.63;4970008;28;20708;-71
2023/10/30 03:47:34;;;;;;;2.43;0.80;;;;;;;11.33;100.00;99342.06;4968550;28;20650;-68
2023/10/30 03:50:00;;;;;;;2.63;1.07;;;;;;;11.30;100.00;99355.34;4969975;28;20777;-69
2023/10/30 03:52:27;;;;;;;4.40;1.07;;;;;;;11.30;100.00;99350.06;5000080;22;20231;-78
2023/10/30 03:54:53;;;;;;;3.63;0.93;;;;;;;11.27;100.00;99350.94;5045146;28;20202;-76
2023/10/30 03:57:20;;;;;;;1.97;0.90;;;;;;;11.24;100.00;99352.75;5043609;28;20213;-75
2023/10/30 03:59:46;;;;;;;2.77;1.00;;;;;;;11.27;100.00;99355.38;5047173;28;20206;-75
2023/10/30 04:02:13;;;;;;;5.10;0.80;;;;;;;11.25;100.00;99360.69;5046167;28;20219;-77
2023/10/30 04:04:39;;;;;;;2.17;0.80;;;;;;;11.27;100.00;99350.94;5055447;28;20628;-77
2023/10/30 04:07:06;;;;;;;1.57;0.70;;;;;;;11.28;100.00;99354.47;5049506;28;20618;-75
2023/10/30 04:09:33;;;;;;;1.40;0.70;;;;;;;11.26;100.00;99343.00;5046910;28;20328;-75
2023/10/30 04:12:02;;;;;;;2.40;1.23;;;;;;;11.20;100.00;99333.31;5046530;28;20203;-76
2023/10/30 04:14:32;;;;;;;3.30;0.90;;;;;;;11.21;100.00;99328.91;5050805;28;20233;-77
2023/10/30 04:16:59;;;;;;;1.00;0.70;;;;;;;11.22;100.00;99330.66;5047153;28;20553;-77
2023/10/30 04:19:25;;;;;;;2.83;0.87;;;;;;;11.18;100.00;99324.47;5055535;28;20593;-76
2023/10/30 04:21:52;;;;;;;2.37;0.90;;;;;;;11.17;100.00;99322.72;5040807;28;20206;-77
2023/10/30 04:24:18;;;;;;;2.60;0.90;;;;;;;11.16;100.00;99333.31;5046313;28;20581;-77
2023/10/30 04:26:44;;;;;;;1.53;0.60;;;;;;;11.20;100.00;99317.41;5048254;28;20293;-76
2023/10/30 04:29:11;;;;;;;4.23;0.83;;;;;;;11.23;100.00;99317.41;5040870;28;20664;-76
2023/10/30 04:31:37;;;;;;;1.37;0.77;;;;;;;11.23;100.00;99312.09;5039602;28;20210;-76
2023/10/30 04:34:06;;;;;;;2.47;0.73;;;;;;;11.27;100.00;99302.38;5048322;28;20233;-75
2023/10/30 04:36:32;;;;;;;4.60;0.80;;;;;;;11.27;100.00;99295.28;5044694;28;20209;-77
2023/10/30 04:38:59;;;;;;;5.40;0.90;;;;;;;11.23;100.00;99304.16;5046797;28;20261;-77
2023/10/30 04:41:25;;;;;;;2.03;0.77;;;;;;;11.21;100.00;99310.34;5048097;28;20205;-76
2023/10/30 04:43:52;;;;;;;2.23;0.87;;;;;;;11.26;100.00;99311.22;5047075;28;20218;-75
2023/10/30 04:46:18;;;;;;;1.40;0.63;;;;;;;11.29;100.00;99301.47;5046752;28;20206;-77
2023/10/30 04:48:44;;;;;;;2.37;0.87;;;;;;;11.30;100.00;99307.63;5049129;28;20202;-77
2023/10/30 04:51:11;;;;;;;1.50;0.70;;;;;;;11.35;100.00;99313.78;5045845;28;20214;-75
2023/10/30 04:53:38;;;;;;;3.40;1.03;;;;;;;11.36;100.00;99317.31;5052880;28;20241;-75
2023/10/30 04:56:07;;;;;;;4.60;0.97;;;;;;;11.39;100.00;99312.88;5045729;28;20306;-78
2023/10/30 04:58:34;;;;;;;4.80;0.83;;;;;;;11.38;100.00;99308.47;5044782;28;20648;-77
2023/10/30 05:01:10;;;;;;;3.90;0.80;;;;;;;11.42;100.00;99314.63;5050475;28;20233;-78
2023/10/30 05:03:36;;;;;;;1.53;0.70;;;;;;;11.44;100.00;99315.47;5042407;28;20254;-77
2023/10/30 05:06:04;;;;;;;1.90;1.10;;;;;;;11.41;100.00;99319.03;5056253;28;20677;-77
2023/10/30 05:08:31;;;;;;;1.40;0.90;;;;;;;11.41;100.00;99320.81;5037905;28;20630;-75
2023/10/30 05:11:02;;;;;;;2.90;0.93;;;;;;;11.40;100.00;99322.56;5044156;28;20229;-74
2023/10/30 05:13:28;;;;;;;3.60;0.90;;;;;;;11.42;100.00;99314.63;5040507;28;20288;-77
2023/10/30 05:15:56;;;;;;;2.47;0.90;;;;;;;11.40;100.00;99316.41;5042450;28;20291;-75
2023/10/30 05:18:24;;;;;;;2.70;0.90;;;;;;;11.40;100.00;99333.19;5042984;28;20213;-73
2023/10/30 05:20:51;;;;;;;1.23;0.87;;;;;;;11.38;100.00;99342.91;5036244;28;20418;-75
2023/10/30 05:23:18;;;;;;;2.17;0.90;;;;;;;11.40;100.00;99349.09;5042287;28;20732;-71
2023/10/30 05:25:44;;;;;;;1.57;0.90;;;;;;;11.42;100.00;99347.31;5039537;28;20202;-73
2023/10/30 05:28:11;;;;;;;2.83;0.87;;;;;;;11.43;100.00;99357.03;5047313;28;20213;-75
2023/10/30 05:30:38;;;;;;;2.30;1.00;;;;;;;11.42;100.00;99362.34;5043983;28;20326;-73
2023/10/30 05:33:05;;;;;;;2.27;0.90;;;;;;;11.42;100.00;99370.28;5037360;28;20474;-74
2023/10/30 05:35:32;;;;;;;1.60;0.90;;;;;;;11.41;100.00;99366.75;5041562;28;20199;-75
2023/10/30 05:37:58;;;;;;;2.73;1.00;;;;;;;11.45;100.00;99363.19;5042154;28;20203;-74
2023/10/30 05:40:25;;;;;;;2.37;1.10;;;;;;;11.47;100.00;99356.09;5042656;28;20195;-75
2023/10/30 05:42:51;;;;;;;1.63;0.80;;;;;;;11.45;100.00;99357.88;5046322;28;20225;-74
2023/10/30 05:45:18;;;;;;;3.43;1.30;;;;;;;11.45;100.00;99363.19;5045464;28;20288;-75
2023/10/30 05:47:44;;;;;;;2.13;1.27;;;;;;;11.43;100.00;99372.03;5041885;28;20731;-72
2023/10/30 05:50:11;;;;;;;3.00;1.30;;;;;;;11.38;100.00;99374.72;5047148;28;20258;-72
2023/10/30 05:52:38;;;;;;;2.37;1.70;;;;;;;11.38;100.00;99390.63;5043487;28;20331;-70
2023/10/30 05:55:05;;;;;;;2.40;1.53;;;;;;;11.44;100.00;99392.38;5045401;28;20214;-72
2023/10/30 05:57:33;;;;;;;5.03;1.80;;;;;;;11.43;100.00;99402.09;5042034;28;20697;-71
2023/10/30 06:00:00;;;;;;;4.07;2.03;;;;;;;11.43;100.00;99399.44;5036862;28;20201;-72
2023/10/30 06:02:26;;;;;;;4.97;2.33;;;;;;;11.41;100.00;99390.63;5044156;28;20310;-70
2023/10/30 06:04:52;;;;;;;3.00;2.10;;;;;;;11.37;100.00;99383.56;5049036;28;20202;-73
2023/10/30 06:07:19;;;;;;;6.43;2.43;;;;;;;11.36;100.00;99370.31;5046681;28;20198;-72
2023/10/30 06:09:45;;;;;;;4.47;2.43;;;;;;;11.34;100.00;99353.56;5051768;28;20222;-74
2023/10/30 06:12:12;;;;;;;4.57;2.87;;;;;;;11.36;100.00;99342.06;5045826;28;20222;-74
2023/10/30 06:14:38;;;;;;;5.80;2.47;;;;;;;11.37;100.00;99337.63;5047548;28;20203;-75
2023/10/30 06:17:05;;;;;;;4.70;2.50;;;;;;;11.36;100.00;99326.16;5052667;28;20203;-74
2023/10/30 06:19:34;;;;;;;7.80;2.80;;;;;;;11.34;100.00;99341.19;5043721;28;20766;-73
2023/10/30 06:22:00;;;;;;;4.83;2.70;;;;;;;11.31;100.00;99338.56;5045432;28;20207;-71
2023/10/30 06:24:27;;;;;;;5.10;3.20;;;;;;;11.35;100.00;99344.72;5045860;28;20639;-75
2023/10/30 06:26:53;;;;;;;5.87;3.00;;;;;;;11.38;100.00;99342.03;5051647;28;20203;-74
2023/10/30 06:29:20;;;;;;;6.33;2.70;;;;;;;11.35;100.00;99355.31;5044795;28;20282;-74
2023/10/30 06:31:47;;;;;;;4.43;2.90;;;;;;;11.34;100.00;99377.41;5043039;28;20222;-77
2023/10/30 06:34:13;;;;;;;6.93;2.53;;;;;;;11.37;100.00;99380.03;5044898;28;20229;-75
2023/10/30 06:36:40;;;;;;;4.10;2.73;;;;;;;11.41;100.00;99384.44;5044494;28;20205;-72
2023/10/30 06:39:09;;;;;;;4.43;2.70;;;;;;;11.40;100.00;99388.84;5039631;28;20220;-78
2023/10/30 06:41:37;;;;;;;3.30;2.27;;;;;;;11.41;100.00;99384.44;5048597;28;20278;-74
2023/10/30 06:44:04;;;;;;;7.13;2.70;;;;;;;11.43;100.00;99380.88;5046541;28;20248;-75
2023/10/30 06:46:30;;;;;;;5.00;2.93;;;;;;;11.39;100.00;99372.97;5045262;28;20210;-76
2023/10/30 06:48:57;;;;;;;6.40;3.03;;;;;;;11.40;100.00;99372.94;5041668;28;20242;-75
2023/10/30 06:51:23;;;;;;;8.67;3.60;;;;;;;11.41;100.00;99373.81;5047902;28;20233;-79
2023/10/30 06:53:49;;;;;;;14.40;4.60;;;;;;;11.39;100.00;99371.19;5047849;28;20616;-75
2023/10/30 06:56:16;;;;;;;9.87;4.07;;;;;;;11.38;100.00;99374.72;5042437;28;20223;-74
2023/10/30 06:58:42;;;;;;;12.53;3.80;;;;;;;11.38;100.00;99379.16;5041796;28;20220;-78
2023/10/30 07:01:09;;;;;;;8.37;3.63;;;;;;;11.39;100.00;99384.44;5041028;28;20196;-78
2023/10/30 07:03:36;;;;;;;6.57;3.70;;;;;;;11.44;100.00;99376.47;5042864;28;20604;-78
2023/10/30 07:06:03;;;;;;;9.53;3.50;;;;;;;11.49;100.00;99385.25;5038915;28;20633;-78
2023/10/30 07:08:29;;;;;;;5.33;3.00;;;;;;;11.53;100.00;99384.34;5040006;28;20198;-79
2023/10/30 07:10:56;;;;;;;7.13;2.97;;;;;;;11.59;100.00;99386.94;5043946;28;20226;-78
2023/10/30 07:13:23;;;;;;;8.83;3.40;;;;;;;11.63;100.00;99383.41;5045580;28;20733;-78
2023/10/30 07:15:50;;;;;;;5.57;3.07;;;;;;;11.69;100.00;99391.31;5046114;28;20201;-80
2023/10/30 07:18:16;;;;;;;8.37;3.63;;;;;;;11.80;100.00;99392.16;5045413;28;20285;-79
2023/10/30 07:20:43;;;;;;;4.73;3.10;;;;;;;11.87;100.00;99393.84;5047023;28;20719;-79
2023/10/30 07:23:10;;;;;;;6.00;3.00;;;;;;;11.86;100.00;99383.25;5046223;28;20653;-79
2023/10/30 07:25:36;;;;;;;6.13;3.20;;;;;;;11.83;100.00;99392.13;5044782;28;20199;-77
2023/10/30 07:28:03;;;;;;;7.63;3.27;;;;;;;11.83;100.00;99384.16;5050454;28;20215;-78
2023/10/30 07:30:29;;;;;;;7.20;3.60;;;;;;;11.79;100.00;99384.22;5049411;28;20222;-76
2023/10/30 07:32:56;;;;;;;7.40;3.97;;;;;;;11.80;100.00;99378.88;5051798;28;20482;-79
2023/10/30 07:35:22;;;;;;;6.37;3.80;;;;;;;11.84;100.00;99383.28;5049467;28;20634;-76
2023/10/30 07:37:49;;;;;;;10.23;4.30;;;;;;;11.87;100.00;99388.56;5040462;28;20202;-79
2023/10/30 07:40:16;;;;;;;6.97;4.03;;;;;;;11.91;100.00;99389.41;5040201;28;20203;-77
2023/10/30 07:42:43;;;;;;;7.13;4.10;;;;;;;11.96;100.00;99392.00;5038374;28;20223;-78
2023/10/30 07:45:11;;;;;;;6.37;4.00;;;;;;;11.96;100.00;99399.97;5044074;28;22018;-78
2023/10/30 07:47:37;;;;;;;5.93;4.03;;;;;;;12.01;100.00;99392.84;5059401;28;20298;-78
2023/10/30 07:50:10;;;;;;;6.17;3.90;;;;;;;12.00;100.00;99394.63;5045974;28;20210;-78
2023/10/30 07:52:36;;;;;;;9.30;3.43;;;;;;;12.00;100.00;99401.72;5043945;28;20230;-77
2023/10/30 07:55:08;;;;;;;7.63;4.40;;;;;;;12.04;100.00;99393.75;5045972;28;20320;-78
2023/10/30 07:57:34;;;;;;;12.53;6.10;;;;;;;12.06;100.00;99394.59;5045188;28;20199;-78
2023/10/30 08:00:00;;;;;;;12.57;6.07;;;;;;;12.09;100.00;99396.34;5039866;28;20654;-79
2023/10/30 08:02:27;;;;;;;12.43;6.47;;;;;;;12.09;100.00;99393.69;5045668;28;20289;-79
2023/10/30 08:04:55;;;;;;;8.73;5.20;;;;;;;12.14;100.00;99394.53;5041836;28;20264;-80
2023/10/30 08:07:21;;;;;;;8.13;4.60;;;;;;;12.17;100.00;99386.53;5048102;28;20582;-79
2023/10/30 08:09:47;;;;;;;8.80;4.60;;;;;;;12.21;100.00;99391.81;5045544;28;20217;-78
2023/10/30 08:12:14;;;;;;;6.57;4.40;;;;;;;12.25;100.00;99390.00;5045034;28;20253;-76
2023/10/30 08:14:40;;;;;;;6.57;4.20;;;;;;;12.26;100.00;99394.41;5040364;28;20575;-79
2023/10/30 08:17:07;;;;;;;9.80;3.80;;;;;;;12.23;100.00;99397.09;5039876;28;20205;-78
2023/10/30 08:19:33;;;;;;;5.20;3.60;;;;;;;12.25;100.00;99395.31;5041178;28;20238;-78
2023/10/30 08:21:59;;;;;;;4.93;3.67;;;;;;;12.23;100.00;99403.28;5041993;28;20203;-78
2023/10/30 08:24:26;;;;;;;6.30;4.30;;;;;;;12.23;100.00;99400.63;5047131;28;20199;-78
2023/10/30 08:26:52;;;;;;;7.57;4.40;;;;;;;12.22;100.00;99398.88;5046581;28;20207;-78
2023/10/30 08:29:19;;;;;;;6.90;3.70;;;;;;;12.20;100.00;99400.66;5041929;28;20211;-78
2023/10/30 08:31:45;;;;;;;5.80;3.60;;;;;;;12.24;100.00;99399.72;5042646;28;20261;-79
2023/10/30 08:34:11;;;;;;;7.23;3.20;;;;;;;12.31;100.00;99405.84;5042639;28;20199;-79
2023/10/30 08:36:38;;;;;;;6.17;3.80;;;;;;;12.36;100.00;99397.84;5041265;28;20205;-79
2023/10/30 08:39:06;;;;;;;4.90;3.30;;;;;;;12.39;100.00;99392.50;5049769;28;20687;-77
2023/10/30 08:41:33;;;;;;;5.67;3.27;;;;;;;12.37;100.00;99396.94;5042631;28;20190;-75
2023/10/30 08:44:00;;;;;;;7.20;3.43;;;;;;;12.43;100.00;99389.84;5052737;28;20272;-74
2023/10/30 08:46:28;;;;;;;5.70;3.17;;;;;;;12.50;100.00;99388.88;5057501;28;20231;-74
2023/10/30 08:48:56;;;;;;;5.67;3.17;;;;;;;12.62;100.00;99382.53;5050660;28;20207;-75
2023/10/30 08:51:22;;;;;;;7.47;3.50;;;;;;;12.71;100.00;99378.88;5044067;28;20225;-72
2023/10/30 08:53:50;;;;;;;12.23;4.57;;;;;;;12.81;100.00;99384.09;5051072;28;20231;-74
2023/10/30 08:56:17;;;;;;;9.10;4.90;;;;;;;12.79;100.00;99387.63;5056425;28;20541;-73
2023/10/30 08:58:45;;;;;;;7.80;4.20;;;;;;;12.82;100.00;99379.66;5047428;28;20205;-73
2023/10/30 09:01:14;;;;;;;12.50;5.57;;;;;;;12.84;100.00;99367.25;5043524;28;20584;-73
2023/10/30 09:03:43;;;;;;;9.77;4.53;;;;;;;12.90;100.00;99363.63;5040455;28;20218;-73
2023/10/30 09:06:10;;;;;;;13.67;5.80;;;;;;;13.03;100.00;99359.91;5047019;28;20226;-73
2023/10/30 09:08:37;;;;;;;10.63;5.37;;;;;;;13.21;100.00;99351.72;5045189;28;20211;-74
2023/10/30 09:11:03;;;;;;;13.77;4.60;;;;;;;13.44;100.00;99340.75;5043924;28;20216;-71
2023/10/30 09:13:30;;;;;;;8.13;3.30;;;;;;;13.55;100.00;99328.16;5045365;28;20222;-72
2023/10/30 09:15:57;;;;;;;6.60;3.23;;;;;;;13.58;100.00;99320.13;5036115;28;20209;-73
2023/10/30 09:18:24;;;;;;;6.73;3.73;;;;;;;13.64;100.00;99308.53;5041856;28;20294;-73
2023/10/30 09:20:50;;;;;;;6.03;3.13;;;;;;;13.74;100.00;99304.81;5043033;28;20204;-72
2023/10/30 09:23:16;;;;;;;6.80;3.03;;;;;;;13.71;100.00;99292.44;5040553;28;20232;-71
2023/10/30 09:25:43;;;;;;;9.30;3.67;;;;;;;13.65;100.00;99284.56;5049001;28;20229;-71
2023/10/30 09:28:09;;;;;;;8.80;3.77;;;;;;;13.59;100.00;99276.66;5046910;28;20238;-72
2023/10/30 09:30:36;;;;;;;10.50;3.87;;;;;;;13.49;100.00;99283.91;5042965;28;20239;-72
2023/10/30 09:33:03;;;;;;;6.30;3.30;;;;;;;13.50;100.00;99284.78;5043087;28;20658;-71
2023/10/30 09:35:31;;;;;;;9.33;4.73;;;;;;;13.64;100.00;99287.25;5046073;28;20660;-72
2023/10/30 09:37:58;;;;;;;9.17;4.13;;;;;;;13.76;100.00;99277.25;5053458;28;20286;-72
2023/10/30 09:40:26;;;;;;;5.27;3.37;;;;;;;13.98;100.00;99277.75;5041639;28;20204;-71
2023/10/30 09:42:54;;;;;;;4.67;2.73;;;;;;;14.17;100.00;99264.97;5037762;28;20629;-70
2023/10/30 09:45:23;;;;;;;7.33;3.63;;;;;;;14.35;100.00;99258.41;5045905;28;20633;-71
2023/10/30 09:47:55;;;;;;;10.70;4.00;;;;;;;14.29;100.00;99258.53;5046694;28;20285;-71
2023/10/30 09:50:23;;;;;;;8.00;4.53;;;;;;;14.32;100.00;99253.13;5037168;28;20203;-71
2023/10/30 09:52:54;;;;;;;6.63;3.80;;;;;;;14.34;100.00;99259.31;5044312;28;20230;-72
2023/10/30 09:55:23;;;;;;;7.27;3.60;;;;;;;14.43;100.00;99263.63;5046900;28;20199;-72
2023/10/30 09:57:51;;;;;;;5.83;3.63;;;;;;;14.52;100.00;99268.75;5046459;28;20725;-71
2023/10/30 10:00:18;;;;;;;4.80;3.20;;;;;;;14.54;100.00;99269.59;5045163;28;20203;-71
2023/10/30 10:02:46;;;;;;;3.83;2.90;;;;;;;14.56;100.00;99281.09;5046134;28;20218;-71
2023/10/30 10:05:14;;;;;;;5.40;3.60;;;;;;;14.53;100.00;99289.16;5046322;28;20205;-71
2023/10/30 10:07:40;;;;;;;9.03;4.40;;;;;;;14.57;100.00;99272.22;5043234;28;20797;-71
2023/10/30 10:10:13;;;;;;;9.63;4.57;;;;;;;14.67;100.00;99271.97;5038850;28;20222;-69
2023/10/30 10:12:39;;;;;;;7.70;3.77;;;;;;;14.78;100.00;99274.41;5039743;28;20968;-71
2023/10/30 10:15:07;;;;;;;5.77;3.60;;;;;;;14.90;100.00;99268.81;5044606;28;20226;-72
2023/10/30 10:17:46;;;;;;;4.37;2.70;;;;;;;15.03;100.00;99275.63;5049142;28;20207;-70
2023/10/30 10:20:13;;;;;;;4.93;3.20;;;;;;;14.92;100.00;99267.00;5043867;28;20202;-70
2023/10/30 10:22:39;;;;;;;10.00;4.83;;;;;;;14.88;100.00;99267.97;5041106;28;20214;-70
2023/10/30 10:25:18;;;;;;;11.50;4.37;;;;;;;14.81;100.00;99266.38;5046340;28;20206;-71
2023/10/30 10:27:44;;;;;;;10.73;4.27;;;;;;;14.82;100.00;99276.13;5040573;28;20214;-70
2023/10/30 10:30:16;;;;;;;3.60;2.80;;;;;;;14.83;100.00;99272.53;5036005;28;20231;-70
2023/10/30 10:32:42;;;;;;;3.83;2.23;;;;;;;14.84;100.00;99274.28;5044210;28;20303;-70
2023/10/30 10:35:11;;;;;;;2.57;2.07;;;;;;;14.95;100.00;99264.25;5039168;28;20285;-70
2023/10/30 10:37:37;;;;;;;2.80;2.20;;;;;;;15.09;100.00;99257.72;5038307;28;20211;-70
2023/10/30 10:40:05;;;;;;;3.60;2.53;;;;;;;15.29;100.00;99250.16;5041867;28;20198;-70
2023/10/30 10:42:33;;;;;;;3.13;2.30;;;;;;;15.39;100.00;99240.13;5041882;28;20784;-70
2023/10/30 10:44:59;;;;;;;2.33;1.97;;;;;;;15.50;100.00;99232.72;5043047;28;20207;-70
2023/10/30 10:47:26;;;;;;;2.63;2.20;;;;;;;15.53;100.00;99225.53;5038406;28;20662;-70
2023/10/30 10:49:52;;;;;;;2.57;2.33;;;;;;;15.52;100.00;99215.75;5041769;28;21720;-71
2023/10/30 10:52:19;;;;;;;3.90;2.33;;;;;;;15.55;100.00;99215.69;5041097;28;20722;-70
2023/10/30 10:55:03;;;;;;;2.80;1.90;;;;;;;15.65;100.00;99211.91;5044142;28;20198;-70
2023/10/30 10:57:51;;;;;;;2.00;1.80;;;;;;;15.66;100.00;99203.00;5032302;28;20203;-70
2023/10/30 11:00:18;;;;;;;4.90;2.17;;;;;;;15.65;100.00;99203.91;5037234;28;20249;-72
2023/10/30 11:02:48;;;;;;;4.50;2.20;;;;;;;15.61;100.00;99188.91;5041043;28;20304;-73
2023/10/30 11:05:16;;;;;;;3.50;2.47;;;;;;;15.62;100.00;99182.66;5045431;28;20194;-72
2023/10/30 11:08:08;;;;;;;2.80;2.40;;;;;;;15.32;100.00;99178.06;5039820;28;20231;-72
2023/10/30 11:11:12;;;;;;;3.33;2.30;;;;;;;15.28;100.00;99171.94;5040000;28;20199;-72
2023/10/30 11:13:46;;;;;;;3.83;2.67;;;;;;;15.42;100.00;99170.69;5037947;28;20219;-71
2023/10/30 11:16:22;;;;;;;3.37;2.50;;;;;;;15.54;100.00;99173.03;5041262;28;20234;-71
2023/10/30 11:18:57;;;;;;;5.53;2.30;;;;;;;15.74;100.00;99172.53;5043362;28;20206;-72
2023/10/30 11:21:26;;;;;;;2.70;1.80;;;;;;;15.89;100.00;99162.31;5043781;28;20636;-73
2023/10/30 11:23:57;;;;;;;4.73;2.07;;;;;;;15.92;100.00;99166.69;5041678;28;20307;-73
2023/10/30 11:26:40;;;;;;;4.07;2.07;;;;;;;15.98;100.00;99163.84;5042450;28;20214;-71